createdAt,value
2023-07-30T00:00:30.393Z,94.60
2023-07-30T00:02:57.264Z,94.60
2023-07-30T00:05:24.013Z,94.60
2023-07-30T00:07:50.966Z,94.60
2023-07-30T00:10:18.337Z,94.60
2023-07-30T00:12:45.268Z,94.60
2023-07-30T00:15:12.167Z,94.60
2023-07-30T00:17:38.973Z,94.40
2023-07-30T00:20:08.761Z,94.40
2023-07-30T00:22:36.490Z,94.40
2023-07-30T00:25:04.450Z,94.40
2023-07-30T00:27:31.767Z,94.40
2023-07-30T00:29:58.514Z,94.40
2023-07-30T00:32:25.301Z,94.40
2023-07-30T00:34:51.992Z,94.40
2023-07-30T00:37:18.747Z,94.30
2023-07-30T00:39:45.467Z,94.20
2023-07-30T00:42:12.198Z,94.20
2023-07-30T00:44:39.001Z,94.20
2023-07-30T00:47:06.117Z,94.20
2023-07-30T00:49:40.100Z,94.30
2023-07-30T00:52:07.779Z,94.30
2023-07-30T00:54:35.110Z,94.30
2023-07-30T00:57:02.167Z,94.20
2023-07-30T00:59:29.244Z,94.20
2023-07-30T01:01:58.503Z,94.30
2023-07-30T01:04:25.305Z,94.20
2023-07-30T01:06:52.458Z,94.20
2023-07-30T01:09:19.643Z,94.20
2023-07-30T01:11:47.006Z,94.20
2023-07-30T01:14:15.466Z,94.20
2023-07-30T01:16:42.931Z,94.20
2023-07-30T01:19:10.981Z,94.30
2023-07-30T01:21:38.723Z,94.20
2023-07-30T01:24:05.873Z,94.20
2023-07-30T01:26:47.194Z,94.20
2023-07-30T01:29:28.448Z,94.10
2023-07-30T01:31:58.540Z,94.20
2023-07-30T01:34:28.192Z,94.10
2023-07-30T01:36:57.790Z,94.10
2023-07-30T01:39:25.203Z,94.00
2023-07-30T01:41:54.759Z,94.00
2023-07-30T01:44:21.751Z,94.00
2023-07-30T01:46:48.563Z,94.20
2023-07-30T01:49:15.300Z,94.20
2023-07-30T01:51:42.018Z,94.30
2023-07-30T01:54:08.667Z,94.40
2023-07-30T01:56:35.359Z,94.40
2023-07-30T01:59:02.108Z,94.70
2023-07-30T02:01:28.845Z,94.80
2023-07-30T02:03:55.866Z,94.70
2023-07-30T02:06:22.842Z,94.40
2023-07-30T02:08:49.550Z,94.40
2023-07-30T02:11:16.296Z,94.60
2023-07-30T02:13:43.833Z,94.40
2023-07-30T02:16:10.569Z,94.30
2023-07-30T02:18:37.521Z,94.20
2023-07-30T02:21:04.250Z,94.10
2023-07-30T02:23:30.936Z,94.00
2023-07-30T02:25:57.606Z,94.00
2023-07-30T02:28:24.395Z,93.80
2023-07-30T02:30:51.167Z,93.80
2023-07-30T02:33:17.856Z,93.80
2023-07-30T02:35:45.165Z,93.80
2023-07-30T02:38:11.924Z,93.70
2023-07-30T02:40:38.820Z,94.00
2023-07-30T02:43:05.724Z,94.30
2023-07-30T02:45:32.531Z,94.30
2023-07-30T02:47:59.374Z,94.10
2023-07-30T02:50:26.068Z,94.00
2023-07-30T02:52:52.803Z,93.80
2023-07-30T02:55:19.651Z,93.80
2023-07-30T02:57:46.514Z,93.70
2023-07-30T03:00:13.800Z,93.60
2023-07-30T03:02:42.070Z,93.60
2023-07-30T03:05:09.129Z,93.50
2023-07-30T03:07:36.384Z,93.50
2023-07-30T03:10:03.408Z,93.50
2023-07-30T03:12:30.205Z,93.40
2023-07-30T03:14:56.897Z,93.30
2023-07-30T03:17:23.637Z,93.30
2023-07-30T03:19:50.381Z,93.30
2023-07-30T03:22:17.362Z,93.30
2023-07-30T03:24:44.097Z,93.10
2023-07-30T03:27:10.775Z,93.10
2023-07-30T03:29:37.547Z,93.10
2023-07-30T03:32:04.468Z,93.10
2023-07-30T03:34:31.254Z,93.10
2023-07-30T03:37:00.348Z,93.10
2023-07-30T03:39:28.209Z,93.20
2023-07-30T03:41:54.914Z,93.20
2023-07-30T03:44:21.616Z,93.20
2023-07-30T03:46:48.492Z,93.20
2023-07-30T03:49:15.316Z,93.20
2023-07-30T03:51:42.173Z,93.30
2023-07-30T03:54:08.924Z,93.20
2023-07-30T03:56:35.612Z,93.30
2023-07-30T03:59:02.271Z,93.10
2023-07-30T04:01:30.211Z,93.10
2023-07-30T04:03:57.014Z,93.10
2023-07-30T04:06:23.803Z,93.10
2023-07-30T04:08:50.461Z,93.10
2023-07-30T04:11:17.221Z,93.00
2023-07-30T04:13:44.046Z,93.00
2023-07-30T04:16:10.796Z,92.90
2023-07-30T04:18:37.542Z,92.90
2023-07-30T04:21:04.254Z,92.90
2023-07-30T04:23:30.956Z,92.90
2023-07-30T04:25:57.781Z,92.80
2023-07-30T04:28:24.566Z,92.80
2023-07-30T04:30:51.369Z,92.80
2023-07-30T04:33:18.577Z,92.80
2023-07-30T04:35:45.428Z,92.70
2023-07-30T04:38:12.177Z,92.70
2023-07-30T04:40:39.432Z,92.70
2023-07-30T04:43:06.290Z,92.70
2023-07-30T04:45:33.124Z,92.70
2023-07-30T04:47:59.944Z,92.70
2023-07-30T04:50:26.684Z,92.70
2023-07-30T04:52:53.354Z,92.70
2023-07-30T04:55:20.069Z,92.60
2023-07-30T04:57:46.827Z,92.70
2023-07-30T05:00:13.831Z,92.60
2023-07-30T05:02:40.654Z,92.70
2023-07-30T05:05:07.580Z,92.60
2023-07-30T05:07:34.392Z,92.60
2023-07-30T05:10:01.268Z,92.70
2023-07-30T05:12:28.059Z,92.60
2023-07-30T05:14:55.124Z,92.60
2023-07-30T05:17:23.054Z,92.50
2023-07-30T05:19:50.060Z,92.50
2023-07-30T05:22:16.725Z,92.50
2023-07-30T05:24:43.469Z,92.50
2023-07-30T05:27:10.248Z,92.50
2023-07-30T05:29:37.134Z,92.50
2023-07-30T05:32:04.138Z,92.40
2023-07-30T05:34:30.866Z,92.50
2023-07-30T05:36:57.543Z,92.50
2023-07-30T05:39:24.254Z,92.50
2023-07-30T05:41:50.957Z,92.60
2023-07-30T05:44:17.644Z,92.60
2023-07-30T05:46:44.412Z,92.70
2023-07-30T05:49:12.076Z,92.80
2023-07-30T05:51:38.945Z,92.70
2023-07-30T05:54:06.372Z,92.70
2023-07-30T05:56:33.146Z,92.70
2023-07-30T05:58:59.840Z,92.70
2023-07-30T06:01:26.665Z,92.60
2023-07-30T06:03:53.444Z,92.60
2023-07-30T06:06:27.767Z,92.60
2023-07-30T06:08:55.254Z,92.50
2023-07-30T06:11:22.720Z,92.50
2023-07-30T06:13:49.704Z,92.50
2023-07-30T06:16:19.049Z,92.50
2023-07-30T06:18:45.828Z,92.40
2023-07-30T06:21:12.546Z,92.40
2023-07-30T06:23:39.323Z,92.40
2023-07-30T06:26:06.144Z,92.40
2023-07-30T06:28:32.908Z,92.40
2023-07-30T06:31:03.580Z,92.40
2023-07-30T06:33:32.857Z,92.40
2023-07-30T06:36:00.198Z,92.40
2023-07-30T06:38:26.948Z,92.30
2023-07-30T06:40:53.767Z,92.40
2023-07-30T06:43:20.513Z,92.40
2023-07-30T06:45:47.207Z,92.30
2023-07-30T06:48:13.993Z,92.30
2023-07-30T06:50:40.660Z,92.30
2023-07-30T06:53:07.381Z,92.30
2023-07-30T06:55:34.712Z,92.30
2023-07-30T06:58:01.460Z,92.20
2023-07-30T07:00:28.151Z,92.30
2023-07-30T07:02:55.262Z,92.20
2023-07-30T07:05:22.774Z,92.30
2023-07-30T07:07:49.645Z,92.20
2023-07-30T07:10:16.648Z,92.20
2023-07-30T07:12:43.518Z,92.20
2023-07-30T07:15:10.329Z,92.30
2023-07-30T07:17:37.164Z,92.30
2023-07-30T07:20:06.102Z,92.30
2023-07-30T07:22:33.140Z,92.30
2023-07-30T07:24:59.849Z,92.30
2023-07-30T07:27:26.806Z,92.30
2023-07-30T07:29:53.960Z,92.40
2023-07-30T07:32:20.907Z,92.90
2023-07-30T07:34:51.417Z,93.10
2023-07-30T07:37:19.669Z,92.90
2023-07-30T07:39:47.107Z,93.00
2023-07-30T07:42:13.842Z,93.00
2023-07-30T07:44:40.681Z,93.10
2023-07-30T07:47:07.408Z,92.80
2023-07-30T07:49:34.622Z,92.80
2023-07-30T07:52:01.317Z,92.80
2023-07-30T07:54:27.989Z,92.80
2023-07-30T07:56:54.834Z,92.80
2023-07-30T07:59:21.713Z,92.60
2023-07-30T08:01:48.523Z,92.60
2023-07-30T08:04:15.403Z,92.50
2023-07-30T08:06:42.350Z,92.50
2023-07-30T08:09:09.167Z,92.50
2023-07-30T08:11:36.189Z,92.50
2023-07-30T08:14:03.139Z,92.50
2023-07-30T08:16:29.882Z,92.40
2023-07-30T08:18:56.851Z,92.40
2023-07-30T08:21:23.650Z,92.40
2023-07-30T08:23:50.515Z,92.40
2023-07-30T08:26:17.337Z,92.40
2023-07-30T08:28:44.035Z,92.40
2023-07-30T08:31:10.873Z,92.40
2023-07-30T08:33:37.565Z,92.40
2023-07-30T08:36:04.357Z,92.40
2023-07-30T08:38:31.525Z,92.40
2023-07-30T08:40:58.436Z,92.30
2023-07-30T08:43:25.369Z,92.30
2023-07-30T08:45:52.327Z,92.30
2023-07-30T08:48:19.125Z,92.40
2023-07-30T08:50:46.810Z,92.40
2023-07-30T08:53:15.121Z,92.50
2023-07-30T08:55:42.557Z,92.50
2023-07-30T08:58:10.601Z,92.50
2023-07-30T09:00:39.287Z,92.60
2023-07-30T09:03:07.287Z,92.60
2023-07-30T09:05:34.216Z,92.70
2023-07-30T09:08:01.188Z,92.50
2023-07-30T09:10:28.089Z,92.50
2023-07-30T09:13:01.496Z,92.50
2023-07-30T09:15:39.193Z,92.50
2023-07-30T09:18:07.244Z,92.60
2023-07-30T09:20:43.683Z,92.60
2023-07-30T09:23:11.343Z,92.50
2023-07-30T09:25:38.792Z,92.70
2023-07-30T09:28:07.648Z,92.80
2023-07-30T09:30:34.655Z,92.90
2023-07-30T09:33:01.521Z,92.80
2023-07-30T09:35:28.310Z,92.80
2023-07-30T09:38:03.691Z,92.80
2023-07-30T09:40:37.736Z,92.80
2023-07-30T09:43:05.777Z,92.70
2023-07-30T09:45:38.152Z,92.70
2023-07-30T09:48:06.602Z,92.80
2023-07-30T09:50:38.060Z,92.80
2023-07-30T09:53:05.293Z,92.70
2023-07-30T09:55:32.120Z,92.80
2023-07-30T09:57:59.021Z,92.70
2023-07-30T10:00:26.514Z,92.70
2023-07-30T10:02:56.260Z,92.70
2023-07-30T10:05:29.807Z,92.70
2023-07-30T10:08:01.585Z,92.50
2023-07-30T10:10:30.027Z,92.40
2023-07-30T10:13:01.094Z,92.70
2023-07-30T10:15:27.947Z,92.90
2023-07-30T10:18:00.010Z,92.90
2023-07-30T10:20:32.412Z,92.80
2023-07-30T10:23:01.469Z,92.80
2023-07-30T10:25:47.433Z,92.80
2023-07-30T10:28:33.727Z,92.80
2023-07-30T10:31:13.102Z,92.80
2023-07-30T10:33:54.071Z,92.90
2023-07-30T10:36:35.096Z,92.90
2023-07-30T10:39:18.254Z,93.00
2023-07-30T10:41:51.234Z,93.00
2023-07-30T10:44:26.703Z,93.10
2023-07-30T10:46:55.629Z,93.00
2023-07-30T10:49:23.145Z,93.10
2023-07-30T10:51:52.062Z,93.10
2023-07-30T10:54:18.759Z,93.10
2023-07-30T10:56:45.925Z,93.10
2023-07-30T10:59:13.721Z,93.00
2023-07-30T11:01:42.374Z,93.00
2023-07-30T11:04:15.174Z,93.10
2023-07-30T11:06:50.674Z,93.10
2023-07-30T11:09:22.007Z,93.00
2023-07-30T11:11:49.538Z,92.90
2023-07-30T11:14:17.839Z,93.00
2023-07-30T11:16:56.294Z,92.90
2023-07-30T11:19:23.187Z,92.90
2023-07-30T11:21:54.345Z,92.90
2023-07-30T11:24:22.182Z,92.80
2023-07-30T11:27:01.940Z,92.60
2023-07-30T11:29:29.319Z,92.50
2023-07-30T11:32:00.710Z,92.40
2023-07-30T11:34:28.635Z,92.50
2023-07-30T11:36:56.656Z,92.40
2023-07-30T11:39:25.433Z,92.30
2023-07-30T11:41:52.628Z,92.20
2023-07-30T11:44:38.917Z,92.30
2023-07-30T11:47:06.619Z,92.20
2023-07-30T11:49:33.424Z,92.20
2023-07-30T11:52:11.016Z,92.30
2023-07-30T11:54:38.161Z,92.20
2023-07-30T11:57:05.020Z,92.20
2023-07-30T11:59:32.610Z,92.20
2023-07-30T12:01:59.623Z,92.20
2023-07-30T12:04:26.418Z,92.20
2023-07-30T12:06:54.723Z,92.30
2023-07-30T12:09:27.166Z,92.20
2023-07-30T12:11:58.153Z,92.20
2023-07-30T12:14:49.265Z,92.00
2023-07-30T12:17:16.017Z,91.80
2023-07-30T12:19:43.230Z,91.80
2023-07-30T12:22:09.998Z,91.90
2023-07-30T12:24:37.111Z,91.90
2023-07-30T12:27:04.264Z,92.00
2023-07-30T12:29:31.004Z,92.00
2023-07-30T12:31:57.903Z,92.00
2023-07-30T12:34:25.404Z,92.00
2023-07-30T12:36:52.190Z,92.10
2023-07-30T12:39:18.914Z,92.00
2023-07-30T12:41:45.599Z,92.10
2023-07-30T12:44:12.307Z,91.90
2023-07-30T12:46:38.982Z,91.80
2023-07-30T12:49:06.180Z,91.60
2023-07-30T12:51:33.381Z,91.50
2023-07-30T12:54:00.548Z,91.40
2023-07-30T12:56:27.490Z,91.50
2023-07-30T12:58:54.399Z,91.60
2023-07-30T13:01:21.195Z,91.70
2023-07-30T13:03:51.298Z,91.80
2023-07-30T13:06:18.130Z,91.80
2023-07-30T13:08:44.839Z,91.90
2023-07-30T13:11:11.522Z,92.50
2023-07-30T13:13:38.301Z,92.30
2023-07-30T13:16:05.107Z,92.70
2023-07-30T13:18:32.125Z,92.70
2023-07-30T13:20:58.969Z,92.50
2023-07-30T13:23:26.851Z,92.70
2023-07-30T13:25:53.823Z,92.70
2023-07-30T13:28:20.652Z,92.80
2023-07-30T13:30:47.617Z,93.00
2023-07-30T13:33:14.561Z,92.80
2023-07-30T13:35:41.360Z,92.80
2023-07-30T13:38:08.221Z,92.80
2023-07-30T13:40:35.015Z,92.70
2023-07-30T13:43:01.750Z,92.50
2023-07-30T13:45:29.247Z,92.80
2023-07-30T13:47:56.114Z,92.70
2023-07-30T13:50:23.008Z,92.90
2023-07-30T13:52:49.876Z,92.70
2023-07-30T13:55:17.718Z,92.90
2023-07-30T13:57:44.514Z,92.70
2023-07-30T14:00:11.862Z,92.50
2023-07-30T14:02:38.826Z,92.90
2023-07-30T14:05:05.972Z,92.80
2023-07-30T14:07:33.126Z,92.80
2023-07-30T14:10:00.612Z,92.70
2023-07-30T14:12:27.766Z,92.50
2023-07-30T14:14:55.212Z,92.40
2023-07-30T14:17:22.966Z,92.30
2023-07-30T14:19:49.785Z,92.30
2023-07-30T14:22:17.145Z,92.20
2023-07-30T14:24:45.738Z,92.20
2023-07-30T14:27:12.645Z,92.20
2023-07-30T14:29:39.784Z,92.20
2023-07-30T14:32:07.363Z,92.30
2023-07-30T14:34:34.185Z,92.20
2023-07-30T14:37:00.890Z,92.40
2023-07-30T14:39:27.658Z,92.40
2023-07-30T14:41:54.343Z,92.70
2023-07-30T14:44:21.621Z,92.50
2023-07-30T14:46:48.346Z,92.50
2023-07-30T14:49:15.202Z,92.50
2023-07-30T14:51:41.913Z,92.50
2023-07-30T14:54:09.397Z,92.40
2023-07-30T14:56:36.289Z,92.30
2023-07-30T14:59:03.288Z,92.30
2023-07-30T15:01:31.162Z,92.30
2023-07-30T15:03:58.395Z,92.30
2023-07-30T15:06:32.698Z,92.30
2023-07-30T15:09:00.172Z,92.60
2023-07-30T15:11:27.109Z,92.70
2023-07-30T15:13:54.077Z,92.80
2023-07-30T15:16:20.854Z,92.90
2023-07-30T15:18:47.548Z,93.60
2023-07-30T15:21:14.684Z,94.40
2023-07-30T15:23:43.738Z,94.70
2023-07-30T15:26:10.678Z,95.40
2023-07-30T15:28:37.409Z,95.50
2023-07-30T15:31:04.479Z,95.60
2023-07-30T15:33:32.508Z,95.70
2023-07-30T15:36:01.193Z,95.90
2023-07-30T15:38:27.910Z,95.90
2023-07-30T15:40:54.668Z,95.60
2023-07-30T15:43:21.517Z,95.50
2023-07-30T15:45:48.374Z,96.20
2023-07-30T15:48:16.060Z,96.90
2023-07-30T15:50:42.798Z,97.70
2023-07-30T15:53:09.497Z,97.80
2023-07-30T15:55:36.533Z,97.90
2023-07-30T15:58:03.642Z,97.70
2023-07-30T16:00:30.365Z,97.30
2023-07-30T16:02:57.193Z,96.90
2023-07-30T16:05:23.923Z,96.70
2023-07-30T16:07:52.048Z,96.90
2023-07-30T16:10:19.055Z,96.30
2023-07-30T16:12:45.816Z,96.70
2023-07-30T16:15:12.600Z,96.00
2023-07-30T16:17:39.373Z,94.70
2023-07-30T16:20:06.915Z,95.00
2023-07-30T16:22:33.962Z,91.30
2023-07-30T16:25:00.782Z,88.10
2023-07-30T16:27:27.624Z,87.10
2023-07-30T16:29:54.711Z,87.70
2023-07-30T16:32:21.633Z,87.50
2023-07-30T16:34:48.912Z,88.20
2023-07-30T16:37:19.805Z,87.70
2023-07-30T16:39:48.119Z,87.60
2023-07-30T16:42:15.299Z,87.70
2023-07-30T16:44:42.447Z,87.00
2023-07-30T16:47:09.160Z,87.60
2023-07-30T16:49:35.916Z,87.30
2023-07-30T16:52:03.097Z,86.50
2023-07-30T16:54:30.348Z,86.70
2023-07-30T16:56:58.588Z,86.60
2023-07-30T16:59:25.981Z,86.90
2023-07-30T17:01:53.220Z,86.80
2023-07-30T17:04:20.885Z,86.60
2023-07-30T17:06:48.225Z,86.60
2023-07-30T17:09:15.353Z,86.70
2023-07-30T17:11:42.498Z,85.70
2023-07-30T17:14:11.146Z,85.40
2023-07-30T17:16:38.593Z,85.90
2023-07-30T17:19:05.986Z,85.70
2023-07-30T17:21:34.167Z,85.70
2023-07-30T17:24:02.534Z,86.40
2023-07-30T17:26:30.118Z,86.90
2023-07-30T17:28:56.877Z,86.60
2023-07-30T17:31:23.649Z,86.20
2023-07-30T17:33:50.639Z,86.20
2023-07-30T17:36:17.628Z,86.10
2023-07-30T17:38:44.453Z,86.00
2023-07-30T17:41:11.290Z,86.10
2023-07-30T17:43:39.815Z,85.80
2023-07-30T17:46:07.234Z,85.80
2023-07-30T17:48:34.073Z,85.90
2023-07-30T17:51:00.907Z,85.70
2023-07-30T17:53:27.652Z,85.70
2023-07-30T17:55:54.400Z,85.80
2023-07-30T17:58:21.243Z,86.00
2023-07-30T18:00:49.006Z,86.30
2023-07-30T18:03:16.088Z,86.40
2023-07-30T18:05:49.708Z,86.50
2023-07-30T18:08:18.230Z,86.80
2023-07-30T18:10:47.329Z,87.00
2023-07-30T18:13:14.615Z,87.10
2023-07-30T18:15:41.374Z,87.20
2023-07-30T18:18:08.208Z,87.40
2023-07-30T18:20:38.330Z,87.60
2023-07-30T18:23:05.946Z,87.70
2023-07-30T18:25:32.937Z,87.80
2023-07-30T18:28:00.233Z,88.00
2023-07-30T18:30:27.269Z,88.10
2023-07-30T18:32:54.225Z,88.20
2023-07-30T18:35:21.079Z,88.20
2023-07-30T18:37:47.750Z,88.40
2023-07-30T18:40:14.477Z,88.50
2023-07-30T18:42:41.202Z,88.50
2023-07-30T18:45:08.749Z,88.60
2023-07-30T18:47:35.640Z,88.70
2023-07-30T18:50:02.620Z,88.80
2023-07-30T18:52:31.106Z,88.80
2023-07-30T18:54:58.125Z,88.90
2023-07-30T18:57:24.896Z,88.80
2023-07-30T18:59:51.619Z,88.90
2023-07-30T19:02:18.483Z,88.80
2023-07-30T19:04:45.250Z,88.90
2023-07-30T19:07:12.447Z,89.00
2023-07-30T19:09:39.293Z,89.00
2023-07-30T19:12:06.582Z,89.10
2023-07-30T19:14:33.369Z,89.00
2023-07-30T19:17:00.093Z,89.10
2023-07-30T19:19:29.134Z,89.10
2023-07-30T19:21:56.040Z,89.30
2023-07-30T19:24:22.902Z,89.20
2023-07-30T19:26:49.752Z,89.10
2023-07-30T19:29:16.496Z,89.10
2023-07-30T19:31:43.266Z,89.20
2023-07-30T19:34:13.860Z,89.20
2023-07-30T19:36:42.258Z,89.50
2023-07-30T19:39:09.259Z,89.50
2023-07-30T19:41:36.302Z,89.70
2023-07-30T19:44:03.239Z,89.80
2023-07-30T19:46:30.738Z,89.80
2023-07-30T19:48:58.043Z,89.90
2023-07-30T19:51:25.426Z,90.00
2023-07-30T19:53:52.138Z,90.00
2023-07-30T19:56:18.951Z,90.30
2023-07-30T19:58:45.764Z,90.40
2023-07-30T20:01:12.840Z,90.30
2023-07-30T20:03:39.686Z,90.40
2023-07-30T20:06:08.094Z,90.30
2023-07-30T20:08:36.587Z,90.20
2023-07-30T20:11:05.118Z,90.30
2023-07-30T20:13:32.397Z,90.30
2023-07-30T20:15:59.935Z,90.30
2023-07-30T20:18:27.170Z,90.20
2023-07-30T20:20:54.160Z,90.30
2023-07-30T20:23:22.519Z,90.30
2023-07-30T20:25:49.751Z,90.40
2023-07-30T20:28:16.727Z,90.40
2023-07-30T20:30:43.440Z,90.30
2023-07-30T20:33:11.208Z,90.30
2023-07-30T20:35:39.638Z,90.40
2023-07-30T20:38:06.648Z,90.40
2023-07-30T20:40:33.419Z,90.40
2023-07-30T20:43:00.573Z,90.50
2023-07-30T20:45:28.996Z,90.60
2023-07-30T20:47:55.957Z,90.50
2023-07-30T20:50:22.805Z,90.60
2023-07-30T20:52:49.971Z,90.70
2023-07-30T20:55:18.718Z,90.70
2023-07-30T20:57:46.156Z,90.70
2023-07-30T21:00:13.265Z,90.70
2023-07-30T21:02:40.188Z,90.70
2023-07-30T21:05:07.441Z,90.70
2023-07-30T21:07:34.124Z,90.70
2023-07-30T21:10:00.883Z,90.70
2023-07-30T21:12:27.778Z,90.70
2023-07-30T21:14:54.505Z,90.70
2023-07-30T21:17:21.514Z,90.70
2023-07-30T21:19:49.887Z,90.70
2023-07-30T21:22:16.798Z,90.70
2023-07-30T21:24:43.453Z,90.70
2023-07-30T21:27:10.077Z,90.70
2023-07-30T21:29:36.961Z,90.70
2023-07-30T21:32:03.950Z,90.70
2023-07-30T21:34:30.794Z,90.70
2023-07-30T21:36:57.455Z,90.70
2023-07-30T21:39:24.293Z,90.80
2023-07-30T21:41:51.006Z,90.70
2023-07-30T21:44:17.732Z,90.70
2023-07-30T21:46:44.530Z,90.70
2023-07-30T21:49:11.248Z,91.00
2023-07-30T21:51:37.985Z,90.80
2023-07-30T21:54:04.764Z,90.60
2023-07-30T21:56:31.570Z,90.50
2023-07-30T21:58:58.309Z,90.50
2023-07-30T22:01:25.069Z,90.90
2023-07-30T22:03:54.176Z,91.20
2023-07-30T22:06:20.892Z,91.10
2023-07-30T22:08:47.597Z,91.10
2023-07-30T22:11:18.391Z,91.00
2023-07-30T22:13:45.438Z,91.10
2023-07-30T22:16:12.214Z,91.10
2023-07-30T22:18:41.439Z,91.10
2023-07-30T22:21:11.792Z,91.00
2023-07-30T22:23:38.553Z,91.00
2023-07-30T22:26:05.265Z,91.00
2023-07-30T22:28:32.093Z,91.00
2023-07-30T22:30:58.919Z,91.00
2023-07-30T22:33:25.796Z,91.00
2023-07-30T22:35:56.295Z,91.00
2023-07-30T22:38:23.533Z,91.40
2023-07-30T22:40:50.705Z,91.40
2023-07-30T22:43:17.590Z,91.40
2023-07-30T22:45:45.263Z,91.60
2023-07-30T22:48:12.168Z,91.50
2023-07-30T22:50:39.970Z,91.40
2023-07-30T22:53:07.836Z,91.30
2023-07-30T22:55:34.623Z,91.20
2023-07-30T22:58:01.409Z,91.30
2023-07-30T23:00:28.250Z,91.20
2023-07-30T23:02:55.025Z,91.20
2023-07-30T23:05:21.950Z,91.20
2023-07-30T23:07:48.691Z,91.00
2023-07-30T23:10:15.784Z,91.00
2023-07-30T23:12:43.631Z,91.00
2023-07-30T23:15:10.333Z,90.90
2023-07-30T23:17:37.253Z,91.00
2023-07-30T23:20:04.515Z,90.80
2023-07-30T23:22:31.363Z,90.80
2023-07-30T23:24:58.053Z,90.60
2023-07-30T23:27:24.744Z,90.90
2023-07-30T23:29:51.436Z,90.80
2023-07-30T23:32:18.178Z,90.80
2023-07-30T23:34:44.953Z,90.90
2023-07-30T23:37:11.713Z,90.80
2023-07-30T23:39:38.547Z,91.00
2023-07-30T23:42:05.637Z,91.20
2023-07-30T23:44:32.310Z,91.80
2023-07-30T23:46:58.985Z,91.50
2023-07-30T23:49:25.787Z,91.20
2023-07-30T23:51:52.571Z,91.00
2023-07-30T23:54:19.245Z,91.00
2023-07-30T23:56:46.022Z,90.90
2023-07-30T23:59:12.732Z,90.90
